sensor_id;sensor_type;location;lat;lon;timestamp;P1;durP1;ratioP1;P2;durP2;ratioP2
46090;SDS011;31826;53.572;10.170;2023-04-25T00:00:33;8.00;;;3.05;;
46090;SDS011;31826;53.572;10.170;2023-04-25T00:02:59;6.80;;;3.17;;
46090;SDS011;31826;53.572;10.170;2023-04-25T00:05:25;7.00;;;2.85;;
46090;SDS011;31826;53.572;10.170;2023-04-25T00:07:51;5.63;;;2.50;;
46090;SDS011;31826;53.572;10.170;2023-04-25T00:10:18;6.63;;;3.00;;
46090;SDS011;31826;53.572;10.170;2023-04-25T00:12:45;7.30;;;2.90;;
46090;SDS011;31826;53.572;10.170;2023-04-25T00:15:11;8.55;;;3.20;;
46090;SDS011;31826;53.572;10.170;2023-04-25T00:17:37;7.35;;;3.22;;
46090;SDS011;31826;53.572;10.170;2023-04-25T00:20:06;7.55;;;3.40;;
46090;SDS011;31826;53.572;10.170;2023-04-25T00:22:34;9.82;;;3.10;;
46090;SDS011;31826;53.572;10.170;2023-04-25T00:25:02;8.82;;;3.15;;
46090;SDS011;31826;53.572;10.170;2023-04-25T00:27:29;9.07;;;3.33;;
46090;SDS011;31826;53.572;10.170;2023-04-25T00:29:54;7.77;;;3.17;;
46090;SDS011;31826;53.572;10.170;2023-04-25T00:32:20;8.60;;;3.07;;
46090;SDS011;31826;53.572;10.170;2023-04-25T00:34:46;12.43;;;3.43;;
46090;SDS011;31826;53.572;10.170;2023-04-25T00:37:11;12.80;;;3.30;;
46090;SDS011;31826;53.572;10.170;2023-04-25T00:39:37;13.20;;;3.25;;
46090;SDS011;31826;53.572;10.170;2023-04-25T00:42:03;12.73;;;3.13;;
46090;SDS011;31826;53.572;10.170;2023-04-25T00:44:30;14.25;;;3.20;;
46090;SDS011;31826;53.572;10.170;2023-04-25T00:46:57;9.75;;;2.80;;
46090;SDS011;31826;53.572;10.170;2023-04-25T00:49:23;8.38;;;2.83;;
46090;SDS011;31826;53.572;10.170;2023-04-25T00:51:49;13.57;;;3.00;;
46090;SDS011;31826;53.572;10.170;2023-04-25T00:54:14;11.05;;;2.97;;
46090;SDS011;31826;53.572;10.170;2023-04-25T00:56:41;10.48;;;2.67;;
46090;SDS011;31826;53.572;10.170;2023-04-25T00:59:07;10.32;;;2.55;;
46090;SDS011;31826;53.572;10.170;2023-04-25T01:01:34;11.03;;;2.80;;
46090;SDS011;31826;53.572;10.170;2023-04-25T01:04:00;15.00;;;3.38;;
46090;SDS011;31826;53.572;10.170;2023-04-25T01:06:26;12.13;;;3.38;;
46090;SDS011;31826;53.572;10.170;2023-04-25T01:08:53;13.85;;;3.05;;
46090;SDS011;31826;53.572;10.170;2023-04-25T01:11:19;17.35;;;3.05;;
46090;SDS011;31826;53.572;10.170;2023-04-25T01:13:45;13.95;;;3.17;;
46090;SDS011;31826;53.572;10.170;2023-04-25T01:16:10;16.27;;;3.38;;
46090;SDS011;31826;53.572;10.170;2023-04-25T01:18:38;16.08;;;3.72;;
46090;SDS011;31826;53.572;10.170;2023-04-25T01:21:09;15.55;;;2.85;;
46090;SDS011;31826;53.572;10.170;2023-04-25T01:23:35;15.30;;;2.95;;
46090;SDS011;31826;53.572;10.170;2023-04-25T01:26:03;15.52;;;3.70;;
46090;SDS011;31826;53.572;10.170;2023-04-25T01:28:29;19.98;;;3.63;;
46090;SDS011;31826;53.572;10.170;2023-04-25T01:30:56;15.80;;;3.55;;
46090;SDS011;31826;53.572;10.170;2023-04-25T01:33:22;14.60;;;3.15;;
46090;SDS011;31826;53.572;10.170;2023-04-25T01:35:48;13.37;;;2.93;;
46090;SDS011;31826;53.572;10.170;2023-04-25T01:38:14;22.40;;;3.10;;
46090;SDS011;31826;53.572;10.170;2023-04-25T01:40:40;10.25;;;3.05;;
46090;SDS011;31826;53.572;10.170;2023-04-25T01:43:09;13.98;;;2.80;;
46090;SDS011;31826;53.572;10.170;2023-04-25T01:45:37;13.70;;;3.95;;
46090;SDS011;31826;53.572;10.170;2023-04-25T01:48:06;12.97;;;3.07;;
46090;SDS011;31826;53.572;10.170;2023-04-25T01:50:32;15.30;;;3.85;;
46090;SDS011;31826;53.572;10.170;2023-04-25T01:52:58;17.50;;;3.77;;
46090;SDS011;31826;53.572;10.170;2023-04-25T01:55:25;16.63;;;2.92;;
46090;SDS011;31826;53.572;10.170;2023-04-25T01:57:51;15.45;;;4.38;;
46090;SDS011;31826;53.572;10.170;2023-04-25T02:00:17;14.63;;;3.42;;
46090;SDS011;31826;53.572;10.170;2023-04-25T02:02:42;12.20;;;3.20;;
46090;SDS011;31826;53.572;10.170;2023-04-25T02:05:08;15.80;;;3.53;;
46090;SDS011;31826;53.572;10.170;2023-04-25T02:07:34;16.20;;;3.90;;
46090;SDS011;31826;53.572;10.170;2023-04-25T02:10:00;15.32;;;3.17;;
46090;SDS011;31826;53.572;10.170;2023-04-25T02:12:26;19.23;;;4.20;;
46090;SDS011;31826;53.572;10.170;2023-04-25T02:14:52;14.30;;;3.22;;
46090;SDS011;31826;53.572;10.170;2023-04-25T02:17:18;13.65;;;3.78;;
46090;SDS011;31826;53.572;10.170;2023-04-25T02:19:44;13.27;;;3.78;;
46090;SDS011;31826;53.572;10.170;2023-04-25T02:22:10;10.68;;;3.55;;
46090;SDS011;31826;53.572;10.170;2023-04-25T02:24:35;13.77;;;3.33;;
46090;SDS011;31826;53.572;10.170;2023-04-25T02:27:01;14.93;;;3.28;;
46090;SDS011;31826;53.572;10.170;2023-04-25T02:29:27;17.43;;;3.83;;
46090;SDS011;31826;53.572;10.170;2023-04-25T02:31:54;13.02;;;2.92;;
46090;SDS011;31826;53.572;10.170;2023-04-25T02:34:20;15.47;;;3.40;;
46090;SDS011;31826;53.572;10.170;2023-04-25T02:36:45;12.33;;;2.70;;
46090;SDS011;31826;53.572;10.170;2023-04-25T02:39:11;12.80;;;3.30;;
46090;SDS011;31826;53.572;10.170;2023-04-25T02:41:37;16.57;;;4.67;;
46090;SDS011;31826;53.572;10.170;2023-04-25T02:44:02;14.23;;;3.40;;
46090;SDS011;31826;53.572;10.170;2023-04-25T02:46:28;12.60;;;2.90;;
46090;SDS011;31826;53.572;10.170;2023-04-25T02:48:54;23.88;;;4.05;;
46090;SDS011;31826;53.572;10.170;2023-04-25T02:51:19;12.57;;;3.13;;
46090;SDS011;31826;53.572;10.170;2023-04-25T02:53:45;17.17;;;3.22;;
46090;SDS011;31826;53.572;10.170;2023-04-25T02:56:11;19.60;;;4.07;;
46090;SDS011;31826;53.572;10.170;2023-04-25T02:58:36;16.57;;;3.10;;
46090;SDS011;31826;53.572;10.170;2023-04-25T03:01:02;16.27;;;3.13;;
46090;SDS011;31826;53.572;10.170;2023-04-25T03:03:28;17.40;;;3.67;;
46090;SDS011;31826;53.572;10.170;2023-04-25T03:05:53;13.93;;;3.53;;
46090;SDS011;31826;53.572;10.170;2023-04-25T03:08:19;15.75;;;3.35;;
46090;SDS011;31826;53.572;10.170;2023-04-25T03:10:45;13.57;;;2.80;;
46090;SDS011;31826;53.572;10.170;2023-04-25T03:13:11;18.75;;;3.95;;
46090;SDS011;31826;53.572;10.170;2023-04-25T03:15:37;14.17;;;2.33;;
46090;SDS011;31826;53.572;10.170;2023-04-25T03:18:03;12.07;;;2.85;;
46090;SDS011;31826;53.572;10.170;2023-04-25T03:20:29;11.03;;;2.53;;
46090;SDS011;31826;53.572;10.170;2023-04-25T03:22:55;14.40;;;2.80;;
46090;SDS011;31826;53.572;10.170;2023-04-25T03:25:21;14.25;;;2.60;;
46090;SDS011;31826;53.572;10.170;2023-04-25T03:27:46;15.57;;;3.00;;
46090;SDS011;31826;53.572;10.170;2023-04-25T03:30:12;11.23;;;2.80;;
46090;SDS011;31826;53.572;10.170;2023-04-25T03:32:38;13.83;;;2.80;;
46090;SDS011;31826;53.572;10.170;2023-04-25T03:35:03;11.67;;;3.70;;
46090;SDS011;31826;53.572;10.170;2023-04-25T03:37:30;10.50;;;3.00;;
46090;SDS011;31826;53.572;10.170;2023-04-25T03:39:56;11.93;;;2.42;;
46090;SDS011;31826;53.572;10.170;2023-04-25T03:42:22;11.37;;;2.40;;
46090;SDS011;31826;53.572;10.170;2023-04-25T03:44:51;14.35;;;2.92;;
46090;SDS011;31826;53.572;10.170;2023-04-25T03:47:17;13.05;;;2.50;;
46090;SDS011;31826;53.572;10.170;2023-04-25T03:49:42;13.73;;;3.25;;
46090;SDS011;31826;53.572;10.170;2023-04-25T03:52:09;12.27;;;2.45;;
46090;SDS011;31826;53.572;10.170;2023-04-25T03:54:35;9.93;;;2.42;;
46090;SDS011;31826;53.572;10.170;2023-04-25T03:57:00;12.60;;;2.63;;
46090;SDS011;31826;53.572;10.170;2023-04-25T03:59:26;11.40;;;2.60;;
46090;SDS011;31826;53.572;10.170;2023-04-25T04:01:52;11.85;;;2.60;;
46090;SDS011;31826;53.572;10.170;2023-04-25T04:04:18;14.82;;;3.05;;
46090;SDS011;31826;53.572;10.170;2023-04-25T04:06:44;17.38;;;3.90;;
46090;SDS011;31826;53.572;10.170;2023-04-25T04:09:10;12.23;;;2.90;;
46090;SDS011;31826;53.572;10.170;2023-04-25T04:11:37;12.48;;;2.85;;
46090;SDS011;31826;53.572;10.170;2023-04-25T04:14:06;11.20;;;2.53;;
46090;SDS011;31826;53.572;10.170;2023-04-25T04:16:32;16.05;;;4.05;;
46090;SDS011;31826;53.572;10.170;2023-04-25T04:18:58;12.50;;;2.58;;
46090;SDS011;31826;53.572;10.170;2023-04-25T04:21:23;13.93;;;3.00;;
46090;SDS011;31826;53.572;10.170;2023-04-25T04:23:49;12.18;;;2.97;;
46090;SDS011;31826;53.572;10.170;2023-04-25T04:26:15;11.25;;;2.55;;
46090;SDS011;31826;53.572;10.170;2023-04-25T04:28:43;14.07;;;2.90;;
46090;SDS011;31826;53.572;10.170;2023-04-25T04:31:10;9.13;;;2.70;;
46090;SDS011;31826;53.572;10.170;2023-04-25T04:33:35;9.68;;;2.20;;
46090;SDS011;31826;53.572;10.170;2023-04-25T04:36:02;12.02;;;2.92;;
46090;SDS011;31826;53.572;10.170;2023-04-25T04:38:28;12.43;;;2.97;;
46090;SDS011;31826;53.572;10.170;2023-04-25T04:40:54;9.57;;;2.40;;
46090;SDS011;31826;53.572;10.170;2023-04-25T04:43:20;11.05;;;2.45;;
46090;SDS011;31826;53.572;10.170;2023-04-25T04:45:47;12.77;;;2.40;;
46090;SDS011;31826;53.572;10.170;2023-04-25T04:48:15;12.82;;;3.08;;
46090;SDS011;31826;53.572;10.170;2023-04-25T04:50:42;9.52;;;2.30;;
46090;SDS011;31826;53.572;10.170;2023-04-25T04:53:10;12.73;;;2.38;;
46090;SDS011;31826;53.572;10.170;2023-04-25T04:55:35;11.85;;;2.38;;
46090;SDS011;31826;53.572;10.170;2023-04-25T04:58:01;12.75;;;2.30;;
46090;SDS011;31826;53.572;10.170;2023-04-25T05:00:26;9.68;;;2.42;;
46090;SDS011;31826;53.572;10.170;2023-04-25T05:02:54;11.27;;;3.17;;
46090;SDS011;31826;53.572;10.170;2023-04-25T05:05:20;11.48;;;3.00;;
46090;SDS011;31826;53.572;10.170;2023-04-25T05:07:46;11.70;;;2.92;;
46090;SDS011;31826;53.572;10.170;2023-04-25T05:10:11;12.55;;;2.55;;
46090;SDS011;31826;53.572;10.170;2023-04-25T05:12:37;12.68;;;2.70;;
46090;SDS011;31826;53.572;10.170;2023-04-25T05:15:03;12.13;;;2.57;;
46090;SDS011;31826;53.572;10.170;2023-04-25T05:17:29;16.08;;;2.72;;
46090;SDS011;31826;53.572;10.170;2023-04-25T05:19:55;9.48;;;2.47;;
46090;SDS011;31826;53.572;10.170;2023-04-25T05:22:20;11.52;;;2.30;;
46090;SDS011;31826;53.572;10.170;2023-04-25T05:24:46;16.23;;;3.90;;
46090;SDS011;31826;53.572;10.170;2023-04-25T05:27:13;10.35;;;2.10;;
46090;SDS011;31826;53.572;10.170;2023-04-25T05:29:38;11.00;;;2.45;;
46090;SDS011;31826;53.572;10.170;2023-04-25T05:32:04;10.68;;;2.05;;
46090;SDS011;31826;53.572;10.170;2023-04-25T05:34:30;12.32;;;2.75;;
46090;SDS011;31826;53.572;10.170;2023-04-25T05:36:56;11.98;;;2.35;;
46090;SDS011;31826;53.572;10.170;2023-04-25T05:39:21;9.15;;;2.22;;
46090;SDS011;31826;53.572;10.170;2023-04-25T05:41:47;11.93;;;2.53;;
46090;SDS011;31826;53.572;10.170;2023-04-25T05:44:13;10.63;;;2.08;;
46090;SDS011;31826;53.572;10.170;2023-04-25T05:46:40;12.05;;;2.70;;
46090;SDS011;31826;53.572;10.170;2023-04-25T05:49:06;16.37;;;3.50;;
46090;SDS011;31826;53.572;10.170;2023-04-25T05:51:32;15.47;;;3.33;;
46090;SDS011;31826;53.572;10.170;2023-04-25T05:53:57;9.70;;;2.80;;
46090;SDS011;31826;53.572;10.170;2023-04-25T05:56:23;9.60;;;2.20;;
46090;SDS011;31826;53.572;10.170;2023-04-25T05:58:49;17.30;;;2.83;;
46090;SDS011;31826;53.572;10.170;2023-04-25T06:01:14;10.67;;;2.57;;
46090;SDS011;31826;53.572;10.170;2023-04-25T06:03:41;12.73;;;2.97;;
46090;SDS011;31826;53.572;10.170;2023-04-25T06:06:08;8.73;;;2.50;;
46090;SDS011;31826;53.572;10.170;2023-04-25T06:08:34;10.25;;;2.20;;
46090;SDS011;31826;53.572;10.170;2023-04-25T06:11:00;12.77;;;3.20;;
46090;SDS011;31826;53.572;10.170;2023-04-25T06:13:26;10.70;;;2.90;;
46090;SDS011;31826;53.572;10.170;2023-04-25T06:15:51;10.10;;;2.42;;
46090;SDS011;31826;53.572;10.170;2023-04-25T06:18:17;10.48;;;2.47;;
46090;SDS011;31826;53.572;10.170;2023-04-25T06:20:43;13.27;;;2.87;;
46090;SDS011;31826;53.572;10.170;2023-04-25T06:23:08;16.17;;;2.47;;
46090;SDS011;31826;53.572;10.170;2023-04-25T06:25:34;11.00;;;1.97;;
46090;SDS011;31826;53.572;10.170;2023-04-25T06:28:00;14.90;;;2.87;;
46090;SDS011;31826;53.572;10.170;2023-04-25T06:30:25;7.57;;;2.77;;
46090;SDS011;31826;53.572;10.170;2023-04-25T06:32:51;9.63;;;2.50;;
46090;SDS011;31826;53.572;10.170;2023-04-25T06:35:18;8.60;;;2.33;;
46090;SDS011;31826;53.572;10.170;2023-04-25T06:37:44;13.07;;;2.57;;
46090;SDS011;31826;53.572;10.170;2023-04-25T06:40:10;13.88;;;2.67;;
46090;SDS011;31826;53.572;10.170;2023-04-25T06:42:36;10.43;;;2.28;;
46090;SDS011;31826;53.572;10.170;2023-04-25T06:45:01;11.75;;;2.33;;
46090;SDS011;31826;53.572;10.170;2023-04-25T06:47:28;5.55;;;1.98;;
46090;SDS011;31826;53.572;10.170;2023-04-25T06:49:54;11.18;;;2.22;;
46090;SDS011;31826;53.572;10.170;2023-04-25T06:52:20;17.83;;;3.17;;
46090;SDS011;31826;53.572;10.170;2023-04-25T06:54:46;11.40;;;2.55;;
46090;SDS011;31826;53.572;10.170;2023-04-25T06:57:12;11.15;;;2.50;;
46090;SDS011;31826;53.572;10.170;2023-04-25T06:59:38;14.10;;;2.92;;
46090;SDS011;31826;53.572;10.170;2023-04-25T07:02:04;12.25;;;2.70;;
46090;SDS011;31826;53.572;10.170;2023-04-25T07:04:31;9.38;;;2.22;;
46090;SDS011;31826;53.572;10.170;2023-04-25T07:06:56;6.10;;;1.87;;
46090;SDS011;31826;53.572;10.170;2023-04-25T07:09:22;14.10;;;3.47;;
46090;SDS011;31826;53.572;10.170;2023-04-25T07:11:48;8.07;;;1.97;;
46090;SDS011;31826;53.572;10.170;2023-04-25T07:14:14;10.10;;;2.20;;
46090;SDS011;31826;53.572;10.170;2023-04-25T07:16:40;7.57;;;1.98;;
46090;SDS011;31826;53.572;10.170;2023-04-25T07:19:05;7.90;;;1.85;;
46090;SDS011;31826;53.572;10.170;2023-04-25T07:21:31;12.77;;;2.40;;
46090;SDS011;31826;53.572;10.170;2023-04-25T07:23:57;11.82;;;2.25;;
46090;SDS011;31826;53.572;10.170;2023-04-25T07:26:23;9.77;;;1.75;;
46090;SDS011;31826;53.572;10.170;2023-04-25T07:28:49;12.10;;;2.47;;
46090;SDS011;31826;53.572;10.170;2023-04-25T07:31:16;6.72;;;1.85;;
46090;SDS011;31826;53.572;10.170;2023-04-25T07:33:43;7.83;;;2.30;;
46090;SDS011;31826;53.572;10.170;2023-04-25T07:36:10;8.13;;;2.30;;
46090;SDS011;31826;53.572;10.170;2023-04-25T07:38:37;9.68;;;2.00;;
46090;SDS011;31826;53.572;10.170;2023-04-25T07:41:03;7.73;;;2.00;;
46090;SDS011;31826;53.572;10.170;2023-04-25T07:43:29;5.73;;;1.67;;
46090;SDS011;31826;53.572;10.170;2023-04-25T07:45:55;6.90;;;2.97;;
46090;SDS011;31826;53.572;10.170;2023-04-25T07:48:22;9.82;;;2.35;;
46090;SDS011;31826;53.572;10.170;2023-04-25T07:50:48;10.10;;;1.92;;
46090;SDS011;31826;53.572;10.170;2023-04-25T07:53:13;11.27;;;2.20;;
46090;SDS011;31826;53.572;10.170;2023-04-25T07:55:39;11.23;;;2.30;;
46090;SDS011;31826;53.572;10.170;2023-04-25T07:58:05;10.70;;;2.30;;
46090;SDS011;31826;53.572;10.170;2023-04-25T08:00:32;8.98;;;2.13;;
46090;SDS011;31826;53.572;10.170;2023-04-25T08:02:57;10.63;;;2.50;;
46090;SDS011;31826;53.572;10.170;2023-04-25T08:05:23;8.43;;;1.73;;
46090;SDS011;31826;53.572;10.170;2023-04-25T08:07:49;9.45;;;1.80;;
46090;SDS011;31826;53.572;10.170;2023-04-25T08:10:15;10.35;;;2.05;;
46090;SDS011;31826;53.572;10.170;2023-04-25T08:12:41;10.63;;;1.75;;
46090;SDS011;31826;53.572;10.170;2023-04-25T08:15:06;9.80;;;1.77;;
46090;SDS011;31826;53.572;10.170;2023-04-25T08:17:33;7.25;;;2.00;;
46090;SDS011;31826;53.572;10.170;2023-04-25T08:19:58;7.90;;;2.13;;
46090;SDS011;31826;53.572;10.170;2023-04-25T08:22:24;8.95;;;1.90;;
46090;SDS011;31826;53.572;10.170;2023-04-25T08:24:50;7.60;;;2.30;;
46090;SDS011;31826;53.572;10.170;2023-04-25T08:27:16;7.18;;;1.73;;
46090;SDS011;31826;53.572;10.170;2023-04-25T08:29:43;9.77;;;1.90;;
46090;SDS011;31826;53.572;10.170;2023-04-25T08:32:08;8.40;;;1.90;;
46090;SDS011;31826;53.572;10.170;2023-04-25T08:34:34;6.57;;;1.40;;
46090;SDS011;31826;53.572;10.170;2023-04-25T08:37:01;5.20;;;1.40;;
46090;SDS011;31826;53.572;10.170;2023-04-25T08:39:29;2.58;;;1.20;;
46090;SDS011;31826;53.572;10.170;2023-04-25T08:41:55;2.97;;;1.10;;
46090;SDS011;31826;53.572;10.170;2023-04-25T08:44:22;5.07;;;1.30;;
46090;SDS011;31826;53.572;10.170;2023-04-25T08:46:48;4.80;;;1.20;;
46090;SDS011;31826;53.572;10.170;2023-04-25T08:49:15;6.70;;;1.65;;
46090;SDS011;31826;53.572;10.170;2023-04-25T08:51:46;5.32;;;1.60;;
46090;SDS011;31826;53.572;10.170;2023-04-25T08:54:12;6.35;;;1.90;;
46090;SDS011;31826;53.572;10.170;2023-04-25T08:56:41;4.50;;;1.60;;
46090;SDS011;31826;53.572;10.170;2023-04-25T08:59:12;8.00;;;1.85;;
46090;SDS011;31826;53.572;10.170;2023-04-25T09:01:38;7.25;;;2.05;;
46090;SDS011;31826;53.572;10.170;2023-04-25T09:04:04;8.13;;;1.70;;
46090;SDS011;31826;53.572;10.170;2023-04-25T09:06:30;11.50;;;2.30;;
46090;SDS011;31826;53.572;10.170;2023-04-25T09:09:03;7.07;;;1.58;;
46090;SDS011;31826;53.572;10.170;2023-04-25T09:11:30;10.98;;;1.98;;
46090;SDS011;31826;53.572;10.170;2023-04-25T09:19:37;12.27;;;1.90;;
46090;SDS011;31826;53.572;10.170;2023-04-25T09:22:05;7.68;;;1.73;;
46090;SDS011;31826;53.572;10.170;2023-04-25T09:24:38;5.03;;;1.63;;
46090;SDS011;31826;53.572;10.170;2023-04-25T09:27:10;6.88;;;1.80;;
46090;SDS011;31826;53.572;10.170;2023-04-25T09:29:43;4.78;;;1.60;;
46090;SDS011;31826;53.572;10.170;2023-04-25T09:32:19;7.43;;;1.67;;
46090;SDS011;31826;53.572;10.170;2023-04-25T09:34:46;5.60;;;1.50;;
46090;SDS011;31826;53.572;10.170;2023-04-25T09:37:17;10.95;;;1.90;;
46090;SDS011;31826;53.572;10.170;2023-04-25T09:39:53;7.63;;;1.88;;
46090;SDS011;31826;53.572;10.170;2023-04-25T09:42:24;5.47;;;1.40;;
46090;SDS011;31826;53.572;10.170;2023-04-25T09:44:52;5.70;;;1.52;;
46090;SDS011;31826;53.572;10.170;2023-04-25T09:47:19;7.45;;;2.20;;
46090;SDS011;31826;53.572;10.170;2023-04-25T09:49:47;9.23;;;1.63;;
46090;SDS011;31826;53.572;10.170;2023-04-25T09:52:16;7.50;;;2.20;;
46090;SDS011;31826;53.572;10.170;2023-04-25T09:54:47;4.20;;;1.30;;
46090;SDS011;31826;53.572;10.170;2023-04-25T09:57:21;6.22;;;1.58;;
46090;SDS011;31826;53.572;10.170;2023-04-25T09:59:49;4.65;;;1.30;;
46090;SDS011;31826;53.572;10.170;2023-04-25T10:02:17;2.80;;;1.07;;
46090;SDS011;31826;53.572;10.170;2023-04-25T10:04:47;4.53;;;1.23;;
46090;SDS011;31826;53.572;10.170;2023-04-25T10:07:13;6.20;;;1.80;;
46090;SDS011;31826;53.572;10.170;2023-04-25T10:09:39;10.13;;;2.20;;
46090;SDS011;31826;53.572;10.170;2023-04-25T10:12:07;7.57;;;1.58;;
46090;SDS011;31826;53.572;10.170;2023-04-25T10:14:33;6.70;;;1.73;;
46090;SDS011;31826;53.572;10.170;2023-04-25T10:17:00;7.30;;;1.55;;
46090;SDS011;31826;53.572;10.170;2023-04-25T10:19:26;9.70;;;1.80;;
46090;SDS011;31826;53.572;10.170;2023-04-25T10:21:54;7.50;;;1.85;;
46090;SDS011;31826;53.572;10.170;2023-04-25T10:24:30;7.13;;;1.83;;
46090;SDS011;31826;53.572;10.170;2023-04-25T10:26:56;6.90;;;1.70;;
46090;SDS011;31826;53.572;10.170;2023-04-25T10:29:26;6.23;;;1.60;;
46090;SDS011;31826;53.572;10.170;2023-04-25T10:31:52;4.93;;;1.67;;
46090;SDS011;31826;53.572;10.170;2023-04-25T10:34:18;8.23;;;1.52;;
46090;SDS011;31826;53.572;10.170;2023-04-25T10:36:51;5.72;;;1.27;;
46090;SDS011;31826;53.572;10.170;2023-04-25T10:39:24;5.25;;;1.40;;
46090;SDS011;31826;53.572;10.170;2023-04-25T10:41:58;6.15;;;1.23;;
46090;SDS011;31826;53.572;10.170;2023-04-25T10:44:30;3.85;;;1.60;;
46090;SDS011;31826;53.572;10.170;2023-04-25T10:46:57;5.53;;;1.80;;
46090;SDS011;31826;53.572;10.170;2023-04-25T10:49:30;5.75;;;1.40;;
46090;SDS011;31826;53.572;10.170;2023-04-25T10:54:53;7.38;;;1.73;;
46090;SDS011;31826;53.572;10.170;2023-04-25T11:00:38;8.75;;;2.80;;
46090;SDS011;31826;53.572;10.170;2023-04-25T11:02:57;5.28;;;1.50;;
46090;SDS011;31826;53.572;10.170;2023-04-25T11:05:32;5.53;;;1.73;;
46090;SDS011;31826;53.572;10.170;2023-04-25T11:07:59;7.83;;;1.40;;
46090;SDS011;31826;53.572;10.170;2023-04-25T11:10:26;4.97;;;1.27;;
46090;SDS011;31826;53.572;10.170;2023-04-25T11:12:52;4.63;;;1.25;;
46090;SDS011;31826;53.572;10.170;2023-04-25T11:15:18;5.47;;;1.80;;
46090;SDS011;31826;53.572;10.170;2023-04-25T11:17:44;6.25;;;1.42;;
46090;SDS011;31826;53.572;10.170;2023-04-25T11:20:11;5.30;;;1.48;;
46090;SDS011;31826;53.572;10.170;2023-04-25T11:22:39;3.47;;;1.20;;
46090;SDS011;31826;53.572;10.170;2023-04-25T11:25:06;7.65;;;1.50;;
46090;SDS011;31826;53.572;10.170;2023-04-25T11:27:33;6.60;;;1.60;;
46090;SDS011;31826;53.572;10.170;2023-04-25T11:30:09;6.30;;;1.52;;
46090;SDS011;31826;53.572;10.170;2023-04-25T11:32:39;5.70;;;1.50;;
46090;SDS011;31826;53.572;10.170;2023-04-25T11:35:06;5.50;;;1.33;;
46090;SDS011;31826;53.572;10.170;2023-04-25T11:37:32;7.20;;;1.60;;
46090;SDS011;31826;53.572;10.170;2023-04-25T11:39:59;4.20;;;1.50;;
46090;SDS011;31826;53.572;10.170;2023-04-25T11:42:25;3.65;;;1.20;;
46090;SDS011;31826;53.572;10.170;2023-04-25T11:44:51;6.85;;;1.50;;
46090;SDS011;31826;53.572;10.170;2023-04-25T11:47:17;5.43;;;1.83;;
46090;SDS011;31826;53.572;10.170;2023-04-25T11:49:43;3.97;;;1.20;;
46090;SDS011;31826;53.572;10.170;2023-04-25T11:52:08;8.13;;;1.10;;
46090;SDS011;31826;53.572;10.170;2023-04-25T11:54:35;5.53;;;1.50;;
46090;SDS011;31826;53.572;10.170;2023-04-25T11:57:01;4.28;;;1.33;;
46090;SDS011;31826;53.572;10.170;2023-04-25T11:59:28;4.53;;;1.30;;
46090;SDS011;31826;53.572;10.170;2023-04-25T12:01:53;4.10;;;1.50;;
46090;SDS011;31826;53.572;10.170;2023-04-25T12:04:20;4.73;;;1.70;;
46090;SDS011;31826;53.572;10.170;2023-04-25T12:06:50;5.60;;;1.33;;
46090;SDS011;31826;53.572;10.170;2023-04-25T12:09:17;4.53;;;1.30;;
46090;SDS011;31826;53.572;10.170;2023-04-25T12:11:54;3.20;;;1.27;;
46090;SDS011;31826;53.572;10.170;2023-04-25T12:14:21;3.63;;;1.20;;
46090;SDS011;31826;53.572;10.170;2023-04-25T12:16:56;3.40;;;1.23;;
46090;SDS011;31826;53.572;10.170;2023-04-25T12:19:23;6.30;;;1.30;;
46090;SDS011;31826;53.572;10.170;2023-04-25T12:21:50;6.28;;;1.50;;
46090;SDS011;31826;53.572;10.170;2023-04-25T12:24:17;5.18;;;1.58;;
46090;SDS011;31826;53.572;10.170;2023-04-25T12:26:52;3.25;;;1.00;;
46090;SDS011;31826;53.572;10.170;2023-04-25T12:29:29;2.70;;;0.95;;
46090;SDS011;31826;53.572;10.170;2023-04-25T12:31:57;3.00;;;1.00;;
46090;SDS011;31826;53.572;10.170;2023-04-25T12:34:23;2.83;;;0.93;;
46090;SDS011;31826;53.572;10.170;2023-04-25T12:36:50;3.65;;;1.08;;
46090;SDS011;31826;53.572;10.170;2023-04-25T12:39:20;2.75;;;1.20;;
46090;SDS011;31826;53.572;10.170;2023-04-25T12:41:52;6.00;;;1.20;;
46090;SDS011;31826;53.572;10.170;2023-04-25T12:44:19;4.28;;;1.15;;
46090;SDS011;31826;53.572;10.170;2023-04-25T12:46:45;2.75;;;0.90;;
46090;SDS011;31826;53.572;10.170;2023-04-25T12:49:11;5.90;;;1.45;;
46090;SDS011;31826;53.572;10.170;2023-04-25T12:51:37;7.18;;;1.30;;
46090;SDS011;31826;53.572;10.170;2023-04-25T12:54:03;5.35;;;1.10;;
46090;SDS011;31826;53.572;10.170;2023-04-25T12:56:31;5.93;;;1.58;;
46090;SDS011;31826;53.572;10.170;2023-04-25T12:58:57;4.32;;;1.20;;
46090;SDS011;31826;53.572;10.170;2023-04-25T13:01:23;6.30;;;1.23;;
46090;SDS011;31826;53.572;10.170;2023-04-25T13:03:50;8.23;;;1.48;;
46090;SDS011;31826;53.572;10.170;2023-04-25T13:06:16;6.87;;;1.20;;
46090;SDS011;31826;53.572;10.170;2023-04-25T13:08:42;4.57;;;1.38;;
46090;SDS011;31826;53.572;10.170;2023-04-25T13:11:08;6.28;;;1.40;;
46090;SDS011;31826;53.572;10.170;2023-04-25T13:13:34;2.63;;;1.10;;
46090;SDS011;31826;53.572;10.170;2023-04-25T13:16:04;5.95;;;1.40;;
46090;SDS011;31826;53.572;10.170;2023-04-25T13:18:30;4.15;;;1.23;;
46090;SDS011;31826;53.572;10.170;2023-04-25T13:20:56;5.47;;;1.70;;
46090;SDS011;31826;53.572;10.170;2023-04-25T13:23:24;4.25;;;1.17;;
46090;SDS011;31826;53.572;10.170;2023-04-25T13:25:51;3.53;;;1.23;;
46090;SDS011;31826;53.572;10.170;2023-04-25T13:28:17;4.97;;;1.15;;
46090;SDS011;31826;53.572;10.170;2023-04-25T13:30:43;4.10;;;1.20;;
46090;SDS011;31826;53.572;10.170;2023-04-25T13:33:09;4.20;;;1.40;;
46090;SDS011;31826;53.572;10.170;2023-04-25T13:35:35;6.40;;;1.30;;
46090;SDS011;31826;53.572;10.170;2023-04-25T13:38:02;3.20;;;0.98;;
46090;SDS011;31826;53.572;10.170;2023-04-25T13:40:28;3.88;;;1.33;;
46090;SDS011;31826;53.572;10.170;2023-04-25T13:42:54;3.90;;;1.40;;
46090;SDS011;31826;53.572;10.170;2023-04-25T13:45:21;5.40;;;1.52;;
46090;SDS011;31826;53.572;10.170;2023-04-25T13:47:47;4.07;;;1.10;;
46090;SDS011;31826;53.572;10.170;2023-04-25T13:50:13;4.03;;;1.30;;
46090;SDS011;31826;53.572;10.170;2023-04-25T13:52:39;6.80;;;2.20;;
46090;SDS011;31826;53.572;10.170;2023-04-25T13:55:06;4.45;;;1.40;;
46090;SDS011;31826;53.572;10.170;2023-04-25T13:57:32;6.10;;;1.45;;
46090;SDS011;31826;53.572;10.170;2023-04-25T13:59:58;2.40;;;1.17;;
46090;SDS011;31826;53.572;10.170;2023-04-25T14:02:24;4.30;;;1.20;;
46090;SDS011;31826;53.572;10.170;2023-04-25T14:04:50;6.25;;;1.65;;
46090;SDS011;31826;53.572;10.170;2023-04-25T14:07:16;5.47;;;1.35;;
46090;SDS011;31826;53.572;10.170;2023-04-25T14:09:44;4.68;;;1.50;;
46090;SDS011;31826;53.572;10.170;2023-04-25T14:12:10;4.65;;;1.30;;
46090;SDS011;31826;53.572;10.170;2023-04-25T14:14:36;4.28;;;1.48;;
46090;SDS011;31826;53.572;10.170;2023-04-25T14:17:02;5.15;;;1.88;;
46090;SDS011;31826;53.572;10.170;2023-04-25T14:19:28;4.20;;;1.45;;
46090;SDS011;31826;53.572;10.170;2023-04-25T14:21:54;4.22;;;1.10;;
46090;SDS011;31826;53.572;10.170;2023-04-25T14:24:20;3.17;;;1.42;;
46090;SDS011;31826;53.572;10.170;2023-04-25T14:26:46;6.38;;;1.38;;
46090;SDS011;31826;53.572;10.170;2023-04-25T14:29:12;6.88;;;1.55;;
46090;SDS011;31826;53.572;10.170;2023-04-25T14:31:38;5.50;;;1.33;;
46090;SDS011;31826;53.572;10.170;2023-04-25T14:34:05;5.20;;;1.20;;
46090;SDS011;31826;53.572;10.170;2023-04-25T14:36:31;9.85;;;1.63;;